createdAt,value
2023-03-04T00:00:42.213Z,99769.25
2023-03-04T00:03:09.383Z,99768.31
2023-03-04T00:05:37.953Z,99765.16
2023-03-04T00:08:04.544Z,99770.22
2023-03-04T00:10:30.987Z,99769.97
2023-03-04T00:12:57.432Z,99774.72
2023-03-04T00:15:25.312Z,99766.69
2023-03-04T00:17:51.652Z,99771.09
2023-03-04T00:20:18.140Z,99771.81
2023-03-04T00:22:45.630Z,99769.69
2023-03-04T00:25:12.239Z,99772.00
2023-03-04T00:27:41.244Z,99781.13
2023-03-04T00:30:08.585Z,99773.34
2023-03-04T00:32:35.118Z,99770.31
2023-03-04T00:35:01.876Z,99764.25
2023-03-04T00:37:28.698Z,99772.44
2023-03-04T00:39:55.618Z,99764.00
2023-03-04T00:42:22.044Z,99765.47
2023-03-04T00:44:48.574Z,99775.25
2023-03-04T00:47:15.160Z,99767.38
2023-03-04T00:49:41.632Z,99774.81
2023-03-04T00:52:08.251Z,99766.94
2023-03-04T00:54:34.963Z,99770.41
2023-03-04T00:57:01.602Z,99773.09
2023-03-04T00:59:28.030Z,99773.09
2023-03-04T01:01:54.929Z,99767.41
2023-03-04T01:04:21.632Z,99767.34
2023-03-04T01:06:48.094Z,99765.00
2023-03-04T01:09:14.728Z,99756.38
2023-03-04T01:11:41.352Z,99761.81
2023-03-04T01:14:07.840Z,99760.06
2023-03-04T01:16:34.981Z,99759.41
2023-03-04T01:19:02.216Z,99759.81
2023-03-04T01:21:28.810Z,99758.31
2023-03-04T01:23:55.491Z,99758.44
2023-03-04T01:26:22.620Z,99751.78
2023-03-04T01:28:49.311Z,99748.59
2023-03-04T01:31:16.335Z,99742.84
2023-03-04T01:33:42.832Z,99751.63
2023-03-04T01:36:09.535Z,99747.88
2023-03-04T01:38:36.011Z,99748.81
2023-03-04T01:41:02.867Z,99742.09
2023-03-04T01:43:31.967Z,99738.72
2023-03-04T01:45:58.913Z,99738.91
2023-03-04T01:48:30.632Z,99746.13
2023-03-04T01:50:57.798Z,99740.78
2023-03-04T01:53:26.526Z,99750.53
2023-03-04T01:55:56.642Z,99748.00
2023-03-04T01:58:28.530Z,99739.28
2023-03-04T02:00:54.935Z,99734.03
2023-03-04T02:03:22.031Z,99734.03
2023-03-04T02:05:53.508Z,99727.25
2023-03-04T02:08:23.082Z,99729.00
2023-03-04T02:10:51.635Z,99727.25
2023-03-04T02:13:18.608Z,99728.72
2023-03-04T02:15:46.521Z,99723.56
2023-03-04T02:18:20.115Z,99728.41
2023-03-04T02:21:04.889Z,99723.38
2023-03-04T02:23:57.060Z,99723.88
2023-03-04T02:26:28.977Z,99729.31
2023-03-04T02:28:57.718Z,99722.66
2023-03-04T02:31:35.860Z,99721.91
2023-03-04T02:34:06.700Z,99726.50
2023-03-04T02:36:34.610Z,99724.06
2023-03-04T02:39:05.438Z,99728.66
2023-03-04T02:41:32.629Z,99726.25
2023-03-04T02:43:59.419Z,99725.97
2023-03-04T02:46:25.899Z,99733.91
2023-03-04T02:48:53.059Z,99732.31
2023-03-04T02:51:19.821Z,99730.63
2023-03-04T02:53:46.468Z,99727.25
2023-03-04T02:56:13.110Z,99729.03
2023-03-04T02:58:39.587Z,99729.34
2023-03-04T03:01:06.608Z,99730.19
2023-03-04T03:03:33.239Z,99729.41
2023-03-04T03:05:59.851Z,99726.91
2023-03-04T03:08:26.486Z,99738.13
2023-03-04T03:10:53.298Z,99732.03
2023-03-04T03:13:19.969Z,99738.03
2023-03-04T03:15:48.459Z,99729.53
2023-03-04T03:18:16.618Z,99722.69
2023-03-04T03:20:43.225Z,99718.31
2023-03-04T03:23:10.102Z,99718.41
2023-03-04T03:25:36.598Z,99716.16
2023-03-04T03:28:03.676Z,99715.59
2023-03-04T03:30:30.827Z,99713.34
2023-03-04T03:32:57.362Z,99706.81
2023-03-04T03:35:23.986Z,99692.81
2023-03-04T03:37:50.462Z,99699.78
2023-03-04T03:40:16.968Z,99698.13
2023-03-04T03:42:43.490Z,99699.72
2023-03-04T03:45:10.490Z,99699.06
2023-03-04T03:47:37.295Z,99696.44
2023-03-04T03:50:05.065Z,99697.56
2023-03-04T03:52:31.532Z,99700.28
2023-03-04T03:55:00.053Z,99694.19
2023-03-04T03:57:29.773Z,99703.84
2023-03-04T03:59:57.019Z,99710.28
2023-03-04T04:02:23.915Z,99707.72
2023-03-04T04:04:50.463Z,99712.97
2023-03-04T04:07:17.563Z,99713.66
2023-03-04T04:09:44.104Z,99714.94
2023-03-04T04:12:13.296Z,99716.91
2023-03-04T04:14:40.049Z,99714.28
2023-03-04T04:17:06.629Z,99712.03
2023-03-04T04:19:33.339Z,99713.34
2023-03-04T04:21:59.846Z,99711.75
2023-03-04T04:24:26.466Z,99712.09
2023-03-04T04:26:52.998Z,99709.41
2023-03-04T04:29:19.832Z,99711.34
2023-03-04T04:31:46.414Z,99709.41
2023-03-04T04:34:15.290Z,99707.53
2023-03-04T04:36:41.992Z,99704.25
2023-03-04T04:39:08.432Z,99710.25
2023-03-04T04:41:38.261Z,99707.91
2023-03-04T04:44:05.104Z,99705.38
2023-03-04T04:46:31.558Z,99703.88
2023-03-04T04:48:58.148Z,99706.59
2023-03-04T04:51:24.576Z,99706.75
2023-03-04T04:53:51.329Z,99714.03
2023-03-04T04:56:24.222Z,99707.19
2023-03-04T04:58:50.796Z,99716.16
2023-03-04T05:01:17.548Z,99711.22
2023-03-04T05:03:44.093Z,99719.63
2023-03-04T05:06:12.318Z,99719.78
2023-03-04T05:08:39.351Z,99721.56
2023-03-04T05:11:07.507Z,99717.94
2023-03-04T05:13:35.085Z,99716.25
2023-03-04T05:16:02.130Z,99714.91
2023-03-04T05:18:29.102Z,99723.53
2023-03-04T05:21:01.617Z,99720.06
2023-03-04T05:23:30.748Z,99723.53
2023-03-04T05:25:57.229Z,99725.56
2023-03-04T05:28:23.835Z,99723.97
2023-03-04T05:30:50.363Z,99729.47
2023-03-04T05:33:18.165Z,99723.97
2023-03-04T05:35:45.989Z,99726.41
2023-03-04T05:38:15.182Z,99724.81
2023-03-04T05:40:42.679Z,99724.16
2023-03-04T05:43:10.085Z,99717.81
2023-03-04T05:45:37.060Z,99715.28
2023-03-04T05:48:04.065Z,99721.03
2023-03-04T05:50:31.535Z,99723.56
2023-03-04T05:52:57.958Z,99720.97
2023-03-04T05:55:25.062Z,99729.81
2023-03-04T05:57:51.549Z,99726.59
2023-03-04T06:00:18.362Z,99721.19
2023-03-04T06:02:45.832Z,99730.81
2023-03-04T06:05:14.690Z,99730.16
2023-03-04T06:07:42.395Z,99736.03
2023-03-04T06:10:09.618Z,99745.75
2023-03-04T06:12:36.163Z,99747.88
2023-03-04T06:15:02.647Z,99758.81
2023-03-04T06:17:30.480Z,99754.59
2023-03-04T06:19:57.039Z,99759.50
2023-03-04T06:22:24.196Z,99764.72
2023-03-04T06:24:51.106Z,99771.44
2023-03-04T06:27:17.693Z,99758.88
2023-03-04T06:29:44.215Z,99761.41
2023-03-04T06:32:10.749Z,99771.19
2023-03-04T06:34:37.218Z,99777.50
2023-03-04T06:37:03.825Z,99786.28
2023-03-04T06:39:30.233Z,99794.19
2023-03-04T06:41:57.078Z,99793.28
2023-03-04T06:44:23.892Z,99808.47
2023-03-04T06:46:50.425Z,99796.72
2023-03-04T06:49:17.317Z,99798.88
2023-03-04T06:51:43.799Z,99800.06
2023-03-04T06:54:10.634Z,99808.47
2023-03-04T06:56:37.197Z,99810.91
2023-03-04T06:59:03.806Z,99808.63
2023-03-04T07:01:30.378Z,99814.66
2023-03-04T07:03:57.598Z,99818.78
2023-03-04T07:06:27.097Z,99817.28
2023-03-04T07:08:54.064Z,99821.41
2023-03-04T07:11:21.480Z,99825.41
2023-03-04T07:13:48.528Z,99823.84
2023-03-04T07:16:17.649Z,99833.00
2023-03-04T07:18:45.018Z,99828.16
2023-03-04T07:21:13.409Z,99833.31
2023-03-04T07:23:40.633Z,99829.59
2023-03-04T07:26:07.907Z,99831.91
2023-03-04T07:28:35.449Z,99833.13
2023-03-04T07:31:29.346Z,99829.88
2023-03-04T07:34:01.412Z,99829.41
2023-03-04T07:36:28.213Z,99841.81
2023-03-04T07:38:55.277Z,99843.31
2023-03-04T07:41:23.895Z,99835.66
2023-03-04T07:43:51.095Z,99845.00
2023-03-04T07:46:19.011Z,99846.59
2023-03-04T07:48:46.137Z,99847.63
2023-03-04T07:51:18.829Z,99847.16
2023-03-04T07:53:48.368Z,99858.88
2023-03-04T07:56:22.576Z,99856.81
2023-03-04T07:58:50.878Z,99861.22
2023-03-04T08:01:20.816Z,99860.75
2023-03-04T08:03:47.351Z,99860.38
2023-03-04T08:06:16.508Z,99866.34
2023-03-04T08:08:43.451Z,99867.22
2023-03-04T08:11:12.738Z,99865.53
2023-03-04T08:13:39.241Z,99871.88
2023-03-04T08:16:06.940Z,99877.25
2023-03-04T08:18:33.965Z,99872.41
2023-03-04T08:21:00.485Z,99876.44
2023-03-04T08:23:27.142Z,99884.63
2023-03-04T08:25:53.778Z,99872.88
2023-03-04T08:28:20.514Z,99876.16
2023-03-04T08:30:53.251Z,99865.81
2023-03-04T08:33:19.925Z,99886.38
2023-03-04T08:35:46.470Z,99880.53
2023-03-04T08:38:13.017Z,99877.84
2023-03-04T08:40:39.771Z,99868.47
2023-03-04T08:43:06.257Z,99868.66
2023-03-04T08:45:32.661Z,99872.31
2023-03-04T08:47:59.204Z,99875.28
2023-03-04T08:50:25.683Z,99880.81
2023-03-04T08:52:52.091Z,99887.66
2023-03-04T08:55:21.513Z,99881.91
2023-03-04T08:57:47.929Z,99893.72
2023-03-04T09:00:15.040Z,99897.75
2023-03-04T09:02:41.755Z,99902.69
2023-03-04T09:05:09.898Z,99904.56
2023-03-04T09:07:36.462Z,99902.59
2023-03-04T09:10:04.206Z,99900.59
2023-03-04T09:12:30.987Z,99890.03
2023-03-04T09:15:10.145Z,99887.59
2023-03-04T09:17:37.997Z,99897.75
2023-03-04T09:20:05.525Z,99897.97
2023-03-04T09:22:32.034Z,99901.03
2023-03-04T09:24:58.818Z,99903.56
2023-03-04T09:27:25.407Z,99897.28
2023-03-04T09:29:51.861Z,99879.94
2023-03-04T09:32:18.706Z,99876.81
2023-03-04T09:34:45.196Z,99878.25
2023-03-04T09:37:11.818Z,99871.22
2023-03-04T09:39:38.291Z,99868.25
2023-03-04T09:42:07.905Z,99863.97
2023-03-04T09:44:41.059Z,99865.00
2023-03-04T09:47:12.739Z,99865.84
2023-03-04T09:49:42.247Z,99839.34
2023-03-04T09:52:22.102Z,99842.47
2023-03-04T09:55:12.825Z,99837.19
2023-03-04T09:57:54.554Z,99830.00
2023-03-04T10:00:32.685Z,99824.66
2023-03-04T10:03:16.647Z,99810.13
2023-03-04T10:06:01.242Z,99793.91
2023-03-04T10:08:33.673Z,99793.75
2023-03-04T10:11:01.806Z,99794.94
2023-03-04T10:13:41.005Z,99785.97
2023-03-04T10:16:11.996Z,99791.00
2023-03-04T10:18:49.767Z,99791.13
2023-03-04T10:21:51.489Z,99766.59
2023-03-04T10:24:20.674Z,99756.81
2023-03-04T10:26:51.655Z,99741.38
2023-03-04T10:29:19.436Z,99746.59
2023-03-04T10:31:46.679Z,99748.44
2023-03-04T10:34:15.245Z,99748.41
2023-03-04T10:36:56.572Z,99757.06
2023-03-04T10:39:31.373Z,99750.81
2023-03-04T10:42:01.590Z,99735.19
2023-03-04T10:44:30.048Z,99737.41
2023-03-04T10:46:58.508Z,99729.53
2023-03-04T10:49:26.891Z,99725.72
2023-03-04T10:51:56.515Z,99705.59
2023-03-04T10:54:23.901Z,99700.94
2023-03-04T10:56:57.429Z,99692.59
2023-03-04T10:59:48.827Z,99669.28
2023-03-04T11:02:38.331Z,99654.63
2023-03-04T11:05:21.861Z,99645.09
2023-03-04T11:07:57.034Z,99632.63
2023-03-04T11:10:32.194Z,99631.78
2023-03-04T11:13:03.543Z,99624.59
2023-03-04T11:15:53.531Z,99597.63
2023-03-04T11:18:33.975Z,99567.50
2023-03-04T11:21:01.407Z,99533.59
2023-03-04T11:23:39.973Z,99506.13
2023-03-04T11:26:16.417Z,99496.81
2023-03-04T11:28:51.982Z,99489.16
2023-03-04T11:31:40.841Z,99467.81
2023-03-04T11:34:30.156Z,99476.59
2023-03-04T11:37:16.971Z,99468.75
2023-03-04T11:39:57.399Z,99460.16
2023-03-04T11:42:49.363Z,99444.63
2023-03-04T11:45:29.233Z,99441.72
2023-03-04T11:48:17.755Z,99442.41
2023-03-04T11:50:49.950Z,99450.16
2023-03-04T11:53:38.329Z,99455.38
2023-03-04T11:56:22.991Z,99458.34
2023-03-04T11:59:26.384Z,99439.31
2023-03-04T12:02:14.703Z,99438.47
2023-03-04T12:04:49.722Z,99438.66
2023-03-04T12:07:59.085Z,99431.19
2023-03-04T12:10:38.643Z,99425.59
2023-03-04T12:13:29.593Z,99418.06
2023-03-04T12:16:19.674Z,99420.78
2023-03-04T12:18:55.280Z,99407.50
2023-03-04T12:21:27.387Z,99402.59
2023-03-04T12:24:27.396Z,99409.06
2023-03-04T12:27:20.250Z,99400.53
2023-03-04T12:29:59.846Z,99390.09
2023-03-04T12:33:08.961Z,99385.50
2023-03-04T12:35:53.196Z,99372.81
2023-03-04T12:38:25.723Z,99370.69
2023-03-04T12:41:14.278Z,99359.25
2023-03-04T12:44:14.383Z,99352.34
2023-03-04T12:47:02.634Z,99345.19
2023-03-04T12:49:51.248Z,99346.75
2023-03-04T12:53:00.101Z,99335.50
2023-03-04T12:55:37.982Z,99328.03
2023-03-04T12:58:26.048Z,99335.56
2023-03-04T13:00:59.475Z,99342.06
2023-03-04T13:03:32.198Z,99336.72
2023-03-04T13:06:11.417Z,99323.69
2023-03-04T13:08:46.005Z,99317.47
2023-03-04T13:11:27.441Z,99317.16
2023-03-04T13:14:12.305Z,99327.22
2023-03-04T13:16:59.741Z,99313.03
2023-03-04T13:19:50.861Z,99304.75
2023-03-04T13:22:27.298Z,99308.28
2023-03-04T13:24:54.881Z,99311.88
2023-03-04T13:28:03.199Z,99313.28
2023-03-04T13:30:32.778Z,99313.09
2023-03-04T13:33:22.087Z,99318.66
2023-03-04T13:35:55.061Z,99321.72
2023-03-04T13:38:27.648Z,99328.91
2023-03-04T13:41:00.204Z,99323.28
2023-03-04T13:43:36.463Z,99316.47
2023-03-04T13:46:18.080Z,99321.59
2023-03-04T13:48:50.486Z,99325.75
2023-03-04T13:51:28.992Z,99323.75
2023-03-04T13:53:59.366Z,99330.09
2023-03-04T13:56:28.139Z,99332.69
2023-03-04T13:59:24.345Z,99336.34
2023-03-04T14:02:13.139Z,99336.19
2023-03-04T14:04:42.668Z,99337.75
2023-03-04T14:07:30.139Z,99331.13
2023-03-04T14:10:18.096Z,99336.75
2023-03-04T14:12:59.099Z,99337.84
2023-03-04T14:15:31.594Z,99343.06
2023-03-04T14:18:01.182Z,99342.72
2023-03-04T14:20:31.119Z,99343.41
2023-03-04T14:22:59.152Z,99345.88
2023-03-04T14:25:31.882Z,99344.63
2023-03-04T14:28:17.344Z,99343.34
2023-03-04T14:30:53.132Z,99332.16
2023-03-04T14:33:23.145Z,99334.84
2023-03-04T14:35:53.285Z,99322.97
2023-03-04T14:38:42.161Z,99326.94
2023-03-04T14:41:21.085Z,99317.53
2023-03-04T14:43:57.703Z,99312.91
2023-03-04T14:46:30.609Z,99313.63
2023-03-04T14:48:58.127Z,99308.34
2023-03-04T14:51:48.912Z,99303.88
2023-03-04T14:54:59.195Z,99308.63
2023-03-04T14:57:28.811Z,99304.50
2023-03-04T14:59:55.908Z,99296.59
2023-03-04T15:02:37.178Z,99295.50
2023-03-04T15:05:17.782Z,99295.34
2023-03-04T15:07:51.904Z,99285.53
2023-03-04T15:10:23.215Z,99285.94
2023-03-04T15:12:55.802Z,99286.78
2023-03-04T15:15:39.242Z,99286.09
2023-03-04T15:18:18.137Z,99285.06
2023-03-04T15:20:53.450Z,99296.75
2023-03-04T15:23:20.086Z,99302.41
2023-03-04T15:25:46.543Z,99308.34
2023-03-04T15:28:18.062Z,99308.63
2023-03-04T15:30:44.635Z,99306.50
2023-03-04T15:33:12.123Z,99306.84
2023-03-04T15:35:39.752Z,99314.09
2023-03-04T15:38:07.304Z,99310.50
2023-03-04T15:40:36.946Z,99305.09
2023-03-04T15:43:05.686Z,99302.88
2023-03-04T15:45:37.579Z,99308.16
2023-03-04T15:48:10.036Z,99312.56
2023-03-04T15:50:38.891Z,99317.25
2023-03-04T15:53:10.462Z,99317.75
2023-03-04T15:55:37.212Z,99313.56
2023-03-04T15:58:03.887Z,99317.00
2023-03-04T16:00:30.418Z,99315.78
2023-03-04T16:02:56.965Z,99312.28
2023-03-04T16:05:23.881Z,99316.63
2023-03-04T16:07:51.252Z,99311.59
2023-03-04T16:10:27.052Z,99314.31
2023-03-04T16:12:54.438Z,99311.94
2023-03-04T16:15:26.324Z,99313.09
2023-03-04T16:17:53.678Z,99320.88
2023-03-04T16:20:23.215Z,99311.41
2023-03-04T16:22:53.123Z,99310.47
2023-03-04T16:25:20.953Z,99319.00
2023-03-04T16:27:47.420Z,99318.16
2023-03-04T16:30:25.157Z,99319.84
2023-03-04T16:32:51.546Z,99317.41
2023-03-04T16:35:19.742Z,99326.97
2023-03-04T16:37:46.793Z,99330.00
2023-03-04T16:40:19.281Z,99324.16
2023-03-04T16:42:45.721Z,99332.75
2023-03-04T16:45:20.097Z,99333.00
2023-03-04T16:47:46.989Z,99330.31
2023-03-04T16:50:25.753Z,99333.78
2023-03-04T16:52:53.155Z,99338.69
2023-03-04T16:55:26.459Z,99331.84
2023-03-04T16:57:54.467Z,99329.34
2023-03-04T17:00:22.871Z,99338.41
2023-03-04T17:02:58.531Z,99335.38
2023-03-04T17:05:28.389Z,99326.78
2023-03-04T17:07:54.836Z,99327.88
2023-03-04T17:10:22.369Z,99333.25
2023-03-04T17:12:49.418Z,99333.97
2023-03-04T17:15:16.163Z,99327.88
2023-03-04T17:17:43.914Z,99331.34
2023-03-04T17:20:16.151Z,99337.34
2023-03-04T17:22:43.261Z,99336.72
2023-03-04T17:25:10.962Z,99347.16
2023-03-04T17:27:37.902Z,99342.00
2023-03-04T17:30:06.282Z,99344.50
2023-03-04T17:32:33.251Z,99351.44
2023-03-04T17:35:01.314Z,99352.28
2023-03-04T17:37:27.809Z,99345.66
2023-03-04T17:39:54.648Z,99353.00
2023-03-04T17:42:21.158Z,99350.34
2023-03-04T17:44:48.086Z,99360.06
2023-03-04T17:47:14.667Z,99358.41
2023-03-04T17:49:41.388Z,99370.59
2023-03-04T17:52:07.953Z,99353.25
2023-03-04T17:54:34.391Z,99362.25
2023-03-04T17:57:00.929Z,99356.84
2023-03-04T17:59:27.745Z,99367.25
2023-03-04T18:01:54.522Z,99370.84
2023-03-04T18:04:22.194Z,99377.09
2023-03-04T18:06:48.690Z,99370.28
2023-03-04T18:09:15.444Z,99369.06
2023-03-04T18:11:42.474Z,99365.00
2023-03-04T18:14:09.002Z,99355.56
2023-03-04T18:16:35.454Z,99356.78
2023-03-04T18:19:02.117Z,99362.06
2023-03-04T18:21:29.832Z,99355.00
2023-03-04T18:23:57.220Z,99351.53
2023-03-04T18:26:24.244Z,99348.16
2023-03-04T18:28:52.649Z,99355.81
2023-03-04T18:31:21.371Z,99350.81
2023-03-04T18:33:51.982Z,99353.56
2023-03-04T18:36:19.253Z,99353.69
2023-03-04T18:38:45.899Z,99359.94
2023-03-04T18:41:14.451Z,99356.59
2023-03-04T18:43:41.262Z,99356.44
2023-03-04T18:46:18.054Z,99361.97
2023-03-04T18:48:52.442Z,99360.50
2023-03-04T18:51:19.880Z,99358.25
2023-03-04T18:53:46.314Z,99365.53
2023-03-04T18:56:24.971Z,99350.56
2023-03-04T18:58:51.895Z,99360.84
2023-03-04T19:01:22.041Z,99360.00
2023-03-04T19:03:48.870Z,99356.66
2023-03-04T19:06:15.397Z,99361.09
2023-03-04T19:08:41.885Z,99356.78
2023-03-04T19:11:08.571Z,99361.91
2023-03-04T19:13:35.147Z,99361.19
2023-03-04T19:16:02.080Z,99369.97
2023-03-04T19:18:29.270Z,99366.09
2023-03-04T19:20:58.574Z,99353.91
2023-03-04T19:23:24.991Z,99355.81
2023-03-04T19:25:53.261Z,99352.34
2023-03-04T19:28:19.726Z,99356.66
2023-03-04T19:30:46.256Z,99361.81
2023-03-04T19:33:12.745Z,99357.47
2023-03-04T19:35:44.989Z,99368.34
2023-03-04T19:38:12.596Z,99368.22
2023-03-04T19:40:43.243Z,99378.88
2023-03-04T19:43:09.852Z,99365.97
2023-03-04T19:45:36.831Z,99368.47
2023-03-04T19:48:07.306Z,99373.03
2023-03-04T19:50:34.120Z,99378.88
2023-03-04T19:53:03.335Z,99367.06
2023-03-04T19:55:29.806Z,99366.09
2023-03-04T19:57:56.220Z,99367.75
2023-03-04T20:00:24.334Z,99366.41
2023-03-04T20:02:50.845Z,99369.88
2023-03-04T20:05:19.673Z,99380.16
2023-03-04T20:07:48.940Z,99369.44
2023-03-04T20:10:16.333Z,99386.72
2023-03-04T20:12:43.307Z,99393.78
2023-03-04T20:15:10.808Z,99393.91
2023-03-04T20:17:37.778Z,99400.13
2023-03-04T20:20:05.119Z,99398.56
2023-03-04T20:22:31.592Z,99407.34
2023-03-04T20:24:57.966Z,99408.50
2023-03-04T20:27:24.872Z,99411.59
2023-03-04T20:29:51.288Z,99406.91
2023-03-04T20:32:17.932Z,99400.56
2023-03-04T20:34:44.814Z,99394.06
2023-03-04T20:37:13.608Z,99404.19
2023-03-04T20:39:41.022Z,99381.22
2023-03-04T20:42:07.462Z,99380.22
2023-03-04T20:44:33.849Z,99376.50
2023-03-04T20:47:00.331Z,99386.22
2023-03-04T20:49:28.022Z,99382.59
2023-03-04T20:51:56.986Z,99371.38
2023-03-04T20:54:23.927Z,99369.56
2023-03-04T20:56:50.577Z,99372.47
2023-03-04T20:59:17.631Z,99372.31
2023-03-04T21:01:45.615Z,99369.56
2023-03-04T21:04:12.509Z,99364.16
2023-03-04T21:06:39.875Z,99358.06
2023-03-04T21:09:11.639Z,99344.88
2023-03-04T21:11:38.584Z,99344.88
2023-03-04T21:14:19.555Z,99344.06
2023-03-04T21:16:46.469Z,99340.59
2023-03-04T21:19:17.036Z,99343.91
2023-03-04T21:21:43.625Z,99344.88
2023-03-04T21:24:14.283Z,99340.13
2023-03-04T21:26:41.129Z,99344.97
2023-03-04T21:29:08.631Z,99349.13
2023-03-04T21:31:40.079Z,99341.94
2023-03-04T21:34:18.038Z,99340.84
2023-03-04T21:36:44.674Z,99338.72
2023-03-04T21:39:17.972Z,99346.06
2023-03-04T21:41:45.131Z,99346.44
2023-03-04T21:44:22.606Z,99350.50
2023-03-04T21:47:00.003Z,99351.75
2023-03-04T21:49:28.214Z,99342.78
2023-03-04T21:51:54.815Z,99337.25
2023-03-04T21:54:21.438Z,99324.31
2023-03-04T21:56:48.539Z,99332.38
2023-03-04T21:59:15.025Z,99326.00
2023-03-04T22:01:42.325Z,99323.25
2023-03-04T22:04:09.076Z,99323.81
2023-03-04T22:06:35.893Z,99316.72
2023-03-04T22:09:03.908Z,99315.06
2023-03-04T22:11:33.798Z,99321.06
2023-03-04T22:14:02.300Z,99320.34
2023-03-04T22:16:49.023Z,99326.59
2023-03-04T22:19:19.938Z,99326.44
2023-03-04T22:21:48.867Z,99309.91
2023-03-04T22:24:18.391Z,99305.78
2023-03-04T22:26:45.105Z,99316.16
2023-03-04T22:29:12.593Z,99318.22
2023-03-04T22:31:40.475Z,99324.31
2023-03-04T22:34:12.966Z,99327.22
2023-03-04T22:36:44.450Z,99328.44
2023-03-04T22:39:13.711Z,99324.84
2023-03-04T22:41:40.911Z,99329.03
2023-03-04T22:44:08.725Z,99327.09
2023-03-04T22:46:39.099Z,99323.34
2023-03-04T22:49:07.737Z,99313.69
2023-03-04T22:51:34.083Z,99312.69
2023-03-04T22:54:00.618Z,99311.72
2023-03-04T22:56:27.206Z,99308.81
2023-03-04T22:58:54.639Z,99293.53
2023-03-04T23:01:21.174Z,99300.34
2023-03-04T23:03:51.082Z,99290.06
2023-03-04T23:06:20.632Z,99292.03
2023-03-04T23:08:49.328Z,99287.31
2023-03-04T23:11:23.783Z,99287.31
2023-03-04T23:13:50.574Z,99273.59
2023-03-04T23:16:18.166Z,99282.06
2023-03-04T23:18:45.742Z,99290.53
2023-03-04T23:21:18.665Z,99275.66
2023-03-04T23:23:45.583Z,99281.19
2023-03-04T23:26:28.053Z,99269.81
2023-03-04T23:28:58.033Z,99272.47
2023-03-04T23:31:24.789Z,99271.38
2023-03-04T23:33:52.520Z,99272.19
2023-03-04T23:36:19.374Z,99278.56
2023-03-04T23:38:49.822Z,99277.16
2023-03-04T23:41:21.944Z,99275.25
2023-03-04T23:43:49.343Z,99269.97
2023-03-04T23:46:16.170Z,99275.94
2023-03-04T23:48:44.080Z,99273.59
2023-03-04T23:51:10.643Z,99273.44
2023-03-04T23:53:37.227Z,99264.97
2023-03-04T23:56:03.832Z,99266.88
2023-03-04T23:58:30.216Z,99276.22
